Time;durP1;ratioP1;P1;durP2;ratioP2;P2;SDS_P1;SDS_P2;PMS_P1;PMS_P2;Temp;Humidity;BMP_temperature;BMP_pressure;BME280_temperature;BME280_humidity;BME280_pressure;Samples;Min_cycle;Max_cycle;Signal;HPM_P1;HPM_P2
2021/06/07 00:02:19;;;;;;;8.18;6.60;;;;;;;20.04;68.17;100472.25;5029047;28;20021;-77
2021/06/07 00:04:45;;;;;;;8.55;6.03;;;;;;;20.18;67.72;100494.97;5029292;28;20107;-78
2021/06/07 00:07:11;;;;;;;7.43;5.72;;;;;;;19.98;67.67;100447.84;5028817;28;20044;-78
2021/06/07 00:09:38;;;;;;;9.45;6.40;;;;;;;20.20;67.26;100487.97;5012305;28;20029;-77
2021/06/07 00:12:10;;;;;;;9.45;6.35;;;;;;;20.09;67.62;100480.13;4989584;28;20131;-80
2021/06/07 00:14:37;;;;;;;7.85;6.07;;;;;;;20.06;67.43;100472.25;4989584;28;20038;-80
2021/06/07 00:17:04;;;;;;;10.90;6.55;;;;;;;20.00;67.46;100453.91;5023112;28;20045;-77
2021/06/07 00:19:33;;;;;;;8.38;6.68;;;;;;;20.12;66.96;100469.63;5028954;28;20156;-80
2021/06/07 00:21:59;;;;;;;6.68;5.70;;;;;;;19.93;67.38;100452.22;5012265;28;20033;-77
2021/06/07 00:24:25;;;;;;;10.63;6.80;;;;;;;20.07;67.27;100475.75;5028882;28;20091;-77
2021/06/07 00:26:51;;;;;;;7.97;6.35;;;;;;;19.84;68.14;100477.53;5028910;28;20021;-77
2021/06/07 00:29:17;;;;;;;8.70;6.90;;;;;;;19.96;67.84;100474.03;5012069;28;20033;-78
2021/06/07 00:31:43;;;;;;;7.32;6.40;;;;;;;20.12;67.41;100477.47;5012105;28;20025;-78
2021/06/07 00:34:10;;;;;;;10.23;7.03;;;;;;;19.64;68.63;100426.88;5028857;28;20488;-80
2021/06/07 00:36:36;;;;;;;11.52;7.30;;;;;;;19.92;68.90;100474.91;5011686;28;20029;-80
2021/06/07 00:39:08;;;;;;;8.57;6.68;;;;;;;19.75;68.38;100448.72;5028497;28;20478;-81
2021/06/07 00:41:34;;;;;;;12.95;6.53;;;;;;;19.64;69.91;100472.28;5011447;28;20134;-80
2021/06/07 00:44:04;;;;;;;10.38;6.47;;;;;;;19.63;70.12;100475.78;5012049;28;20052;-81
2021/06/07 00:46:31;;;;;;;9.93;6.88;;;;;;;19.53;69.91;100463.56;5028733;28;20029;-80
2021/06/07 00:48:56;;;;;;;8.32;7.20;;;;;;;19.61;69.30;100455.72;5023175;28;20028;-80
2021/06/07 00:51:22;;;;;;;12.13;7.50;;;;;;;19.73;69.33;100458.31;5070540;28;20028;-78
2021/06/07 00:53:48;;;;;;;9.88;7.85;;;;;;;19.81;68.94;100448.72;5053083;28;20020;-77
2021/06/07 00:56:14;;;;;;;9.48;7.80;;;;;;;19.96;68.62;100452.19;5070898;28;20115;-76
2021/06/07 00:58:46;;;;;;;9.50;7.82;;;;;;;19.62;70.23;100462.69;5070721;28;20055;-77
2021/06/07 01:01:14;;;;;;;12.02;8.23;;;;;;;19.35;70.54;100453.94;5028250;28;20041;-81
2021/06/07 01:03:41;;;;;;;9.23;7.28;;;;;;;19.04;71.83;100457.41;5011648;28;20095;-82
2021/06/07 01:06:08;;;;;;;12.57;7.53;;;;;;;19.42;70.85;100465.31;5028806;28;20458;-79
2021/06/07 01:08:34;;;;;;;8.65;7.10;;;;;;;19.48;70.17;100463.56;5028188;28;20076;-79
2021/06/07 01:11:00;;;;;;;9.85;7.65;;;;;;;19.59;70.38;100460.94;5027955;28;20511;-79
2021/06/07 01:13:26;;;;;;;10.80;7.05;;;;;;;19.51;69.91;100420.78;5011591;28;20040;-78
2021/06/07 01:15:53;;;;;;;9.43;7.60;;;;;;;19.66;69.52;100448.72;5011858;28;20036;-78
2021/06/07 01:18:20;;;;;;;9.35;7.25;;;;;;;19.77;69.12;100444.34;5011593;28;20082;-77
2021/06/07 01:20:48;;;;;;;9.43;7.70;;;;;;;19.81;68.89;100453.94;5028314;28;20095;-79
2021/06/07 01:23:13;;;;;;;12.85;7.95;;;;;;;19.73;68.96;100442.59;5028414;28;20033;-76
2021/06/07 01:25:41;;;;;;;10.27;8.00;;;;;;;19.64;69.23;100413.78;5028123;28;20048;-81
2021/06/07 01:28:10;;;;;;;8.80;7.68;;;;;;;19.87;69.60;100443.47;5011601;28;20196;-79
2021/06/07 01:33:58;;;;;;;10.00;8.30;;;;;;;19.43;71.19;100443.47;5132610;22;20064;-78
2021/06/07 01:36:24;;;;;;;9.65;7.95;;;;;;;19.32;72.30;100464.44;5029722;28;20025;-79
2021/06/07 01:38:49;;;;;;;10.50;8.07;;;;;;;18.73;74.56;100454.69;5030574;28;20032;-80
2021/06/07 01:41:17;;;;;;;11.43;7.70;;;;;;;18.69;75.34;100457.28;5029362;28;20026;-78
2021/06/07 01:43:43;;;;;;;8.77;7.80;;;;;;;18.68;76.38;100473.81;5047731;28;20082;-78
2021/06/07 01:46:09;;;;;;;9.20;7.50;;;;;;;18.64;76.31;100472.97;5045422;28;20474;-80
2021/06/07 01:48:35;;;;;;;11.98;7.40;;;;;;;18.42;77.06;100451.09;5042367;28;20030;-79
2021/06/07 01:51:05;;;;;;;10.80;7.78;;;;;;;18.51;77.13;100465.94;5040976;28;20102;-79
2021/06/07 01:53:31;;;;;;;10.35;8.23;;;;;;;18.72;76.32;100467.75;5019320;28;20041;-77
2021/06/07 01:55:59;;;;;;;12.05;8.73;;;;;;;18.72;76.24;100460.78;5014366;28;20136;-77
2021/06/07 01:58:25;;;;;;;11.85;8.07;;;;;;;18.82;75.26;100453.84;5047723;28;20033;-77
2021/06/07 02:01:04;;;;;;;10.90;8.00;;;;;;;19.01;74.14;100454.78;5031516;28;20457;-75
2021/06/07 02:03:29;;;;;;;12.93;8.43;;;;;;;19.06;73.92;100453.03;5027213;28;20101;-75
2021/06/07 02:05:58;;;;;;;9.63;7.97;;;;;;;19.09;73.92;100457.44;5014812;28;20104;-77
2021/06/07 02:08:24;;;;;;;12.02;8.50;;;;;;;19.05;73.63;100424.25;5014218;28;20037;-79
2021/06/07 02:10:55;;;;;;;10.10;8.40;;;;;;;19.22;73.84;100467.03;5014541;28;20053;-76
2021/06/07 02:13:22;;;;;;;13.50;8.48;;;;;;;19.21;73.60;100467.88;5045427;28;20041;-76
2021/06/07 02:15:55;;;;;;;9.90;8.93;;;;;;;19.31;73.16;100474.00;5051146;28;20048;-77
2021/06/07 02:18:21;;;;;;;11.05;8.52;;;;;;;19.27;72.89;100467.03;5034250;28;20037;-74
2021/06/07 02:20:46;;;;;;;10.73;7.93;;;;;;;19.22;73.00;100461.78;5051446;28;20056;-76
2021/06/07 02:23:12;;;;;;;11.85;8.15;;;;;;;19.30;72.27;100460.94;5035882;28;20048;-77
2021/06/07 02:25:38;;;;;;;10.52;8.32;;;;;;;19.07;71.81;100397.22;5035716;28;20025;-81
2021/06/07 02:28:15;;;;;;;15.80;8.75;;;;;;;19.45;71.46;100455.72;5053558;28;20021;-76
2021/06/07 02:30:42;;;;;;;12.77;8.20;;;;;;;19.41;71.57;100451.34;5035205;28;20505;-78
2021/06/07 02:33:08;;;;;;;11.25;9.13;;;;;;;19.43;71.95;100483.63;5028970;28;20077;-76
2021/06/07 02:35:33;;;;;;;11.77;8.73;;;;;;;19.12;72.90;100470.50;5030266;28;20064;-76
2021/06/07 02:37:59;;;;;;;19.08;8.40;;;;;;;18.99;74.61;100484.41;5053037;28;20017;-76
2021/06/07 02:40:28;;;;;;;10.32;8.18;;;;;;;18.20;76.07;100416.13;5034875;28;20464;-77
2021/06/07 02:42:54;;;;;;;16.67;8.40;;;;;;;18.78;75.35;100480.88;5032966;28;20025;-74
2021/06/07 02:45:20;;;;;;;13.80;8.07;;;;;;;18.24;74.70;100373.47;5033282;28;20049;-75
2021/06/07 02:47:48;;;;;;;15.55;8.25;;;;;;;18.95;74.74;100488.78;5031321;28;20021;-78
2021/06/07 02:50:17;;;;;;;12.38;8.05;;;;;;;18.98;73.82;100454.78;5052708;28;20025;-75
2021/06/07 02:52:51;;;;;;;14.35;7.78;;;;;;;18.92;73.20;100442.56;5052736;28;20021;-76
2021/06/07 02:55:29;;;;;;;8.93;7.45;;;;;;;19.14;73.08;100499.28;5053375;28;20376;-76
2021/06/07 02:57:56;;;;;;;10.30;7.93;;;;;;;19.08;72.88;100485.31;5034818;28;20029;-76
2021/06/07 03:00:29;;;;;;;12.35;8.45;;;;;;;19.21;73.27;100495.81;5052607;28;20040;-75
2021/06/07 03:02:56;;;;;;;9.82;8.38;;;;;;;19.32;72.63;100493.22;5034903;28;20063;-75
2021/06/07 03:05:22;;;;;;;9.85;7.70;;;;;;;19.38;72.11;100478.38;5052833;28;20091;-77
2021/06/07 03:07:47;;;;;;;13.20;8.70;;;;;;;19.51;72.00;100484.50;5034621;28;20021;-76
2021/06/07 03:10:13;;;;;;;17.00;10.63;;;;;;;19.40;71.59;100442.63;5052133;28;20099;-80
2021/06/07 03:12:39;;;;;;;45.78;26.48;;;;;;;19.73;71.11;100497.59;5052052;28;20094;-75
2021/06/07 03:15:06;;;;;;;57.33;29.27;;;;;;;19.77;70.62;100488.00;5051993;28;20498;-78
2021/06/07 03:17:32;;;;;;;34.88;19.58;;;;;;;19.81;70.24;100508.97;5052446;28;20055;-77
2021/06/07 03:19:57;;;;;;;22.80;14.38;;;;;;;19.81;69.56;100500.22;5037949;28;20033;-76
2021/06/07 03:22:23;;;;;;;14.05;10.18;;;;;;;19.79;69.22;100508.09;5034367;28;20420;-74
2021/06/07 03:24:49;;;;;;;12.75;9.93;;;;;;;19.58;68.77;100432.13;5052048;28;20029;-75
2021/06/07 03:27:16;;;;;;;13.90;9.23;;;;;;;20.10;69.29;100509.81;5010016;28;20037;-77
2021/06/07 03:29:42;;;;;;;15.48;8.90;;;;;;;19.95;70.05;100514.22;5009983;28;20049;-75
2021/06/07 03:32:08;;;;;;;14.27;8.30;;;;;;;19.80;70.47;100520.31;5009645;28;20103;-77
2021/06/07 03:34:33;;;;;;;11.82;8.40;;;;;;;19.52;71.43;100494.09;5009769;28;20531;-78
2021/06/07 03:36:59;;;;;;;8.48;7.57;;;;;;;19.43;72.09;100509.81;4995286;28;20521;-78
2021/06/07 03:39:24;;;;;;;11.38;7.40;;;;;;;19.62;71.36;100499.34;4990551;28;20030;-76
2021/06/07 03:41:50;;;;;;;11.55;7.82;;;;;;;19.72;70.78;100494.09;4990015;28;20042;-77
2021/06/07 03:44:15;;;;;;;9.10;8.20;;;;;;;19.94;70.45;100511.56;4989373;28;20038;-76
2021/06/07 03:46:41;;;;;;;9.25;7.63;;;;;;;20.03;70.05;100493.25;4981480;28;20172;-78
2021/06/07 03:49:06;;;;;;;9.07;8.18;;;;;;;20.18;69.74;100513.31;4993621;28;20382;-77
2021/06/07 03:51:33;;;;;;;9.35;8.13;;;;;;;20.07;70.46;100515.06;4986718;28;20037;-77
2021/06/07 03:53:59;;;;;;;9.57;7.75;;;;;;;20.07;70.21;100510.69;4994666;28;20070;-77
2021/06/07 03:56:24;;;;;;;10.88;8.23;;;;;;;19.92;69.61;100511.59;4972598;28;20061;-78
2021/06/07 03:58:50;;;;;;;10.68;8.02;;;;;;;19.83;70.82;100509.84;4995304;28;20038;-77
2021/06/07 04:01:15;;;;;;;9.38;8.35;;;;;;;19.60;71.40;100524.66;5008010;28;20031;-78
2021/06/07 04:03:41;;;;;;;9.63;8.23;;;;;;;19.05;73.95;100521.06;5009446;28;20065;-77
2021/06/07 04:06:06;;;;;;;12.13;8.48;;;;;;;19.13;73.81;100529.81;5020539;28;20037;-79
2021/06/07 04:08:32;;;;;;;11.43;9.13;;;;;;;18.96;72.93;100466.13;5015397;28;20125;-78
2021/06/07 04:10:57;;;;;;;11.77;8.57;;;;;;;19.41;72.55;100516.78;5018227;28;20022;-79
2021/06/07 04:13:23;;;;;;;10.00;8.70;;;;;;;19.47;73.61;100516.78;4994561;28;20050;-78
2021/06/07 04:15:48;;;;;;;11.70;8.98;;;;;;;19.50;72.20;100511.56;5016326;28;20029;-76
2021/06/07 04:18:14;;;;;;;10.55;8.68;;;;;;;19.42;71.97;100478.41;4997191;28;20038;-79
2021/06/07 04:20:39;;;;;;;11.27;8.93;;;;;;;19.28;72.23;100447.84;4998578;28;20481;-78
2021/06/07 04:23:05;;;;;;;10.77;9.05;;;;;;;19.65;71.98;100500.22;5014836;28;20045;-76
2021/06/07 04:25:30;;;;;;;21.63;9.57;;;;;;;19.63;71.36;100501.97;5009201;28;20516;-78
2021/06/07 04:27:58;;;;;;;12.70;8.80;;;;;;;19.78;71.78;100515.94;5009479;28;20167;-78
2021/06/07 04:30:24;;;;;;;12.95;8.85;;;;;;;19.73;71.52;100508.09;5009452;28;20104;-78
2021/06/07 04:32:51;;;;;;;17.27;9.95;;;;;;;19.77;71.55;100517.69;5017772;28;20150;-78
2021/06/07 04:35:17;;;;;;;13.13;10.18;;;;;;;19.89;70.97;100511.59;5016140;28;20030;-78
2021/06/07 04:37:51;;;;;;;14.95;9.35;;;;;;;19.71;70.68;100470.53;5011669;28;20034;-78
2021/06/07 04:40:20;;;;;;;11.73;8.88;;;;;;;20.09;69.45;100511.56;5011363;28;20113;-78
2021/06/07 04:42:46;;;;;;;12.27;9.20;;;;;;;20.15;70.20;100511.56;5011817;28;20037;-79
2021/06/07 04:45:12;;;;;;;13.25;8.80;;;;;;;20.17;69.56;100516.81;5010682;28;20116;-79
2021/06/07 04:47:38;;;;;;;16.88;9.75;;;;;;;20.26;71.31;100521.16;5012167;28;20037;-78
2021/06/07 04:50:06;;;;;;;11.80;9.25;;;;;;;20.17;70.51;100516.81;5011729;28;20104;-78
2021/06/07 04:52:32;;;;;;;10.50;9.40;;;;;;;20.16;70.35;100530.78;5012151;28;20034;-78
2021/06/07 04:54:58;;;;;;;12.82;9.07;;;;;;;20.04;70.87;100515.97;5010438;28;20025;-78
2021/06/07 04:57:23;;;;;;;10.70;8.95;;;;;;;20.02;70.89;100526.41;5012083;28;20470;-78
2021/06/07 04:59:49;;;;;;;11.73;8.85;;;;;;;19.97;70.69;100525.56;5011766;28;20040;-78
2021/06/07 05:02:14;;;;;;;11.52;9.00;;;;;;;19.82;71.28;100496.72;5011595;28;20026;-83
2021/06/07 05:04:40;;;;;;;11.88;8.93;;;;;;;20.03;70.83;100522.06;5011687;28;20032;-78
2021/06/07 05:07:08;;;;;;;13.43;8.23;;;;;;;20.07;71.83;100515.06;5011694;28;20065;-78
2021/06/07 05:09:34;;;;;;;10.60;8.70;;;;;;;20.13;71.12;100538.66;5011453;28;20026;-78
2021/06/07 05:11:59;;;;;;;12.15;8.18;;;;;;;20.07;72.18;100533.44;5011665;28;20030;-79
2021/06/07 05:14:25;;;;;;;15.05;8.68;;;;;;;20.12;71.84;100545.63;5011643;28;20030;-79
2021/06/07 05:16:50;;;;;;;9.90;8.13;;;;;;;20.25;70.80;100549.13;5011681;28;20026;-78
2021/06/07 05:19:16;;;;;;;9.75;7.90;;;;;;;20.30;71.15;100551.72;5010377;28;20034;-78
2021/06/07 05:21:41;;;;;;;12.77;8.02;;;;;;;20.08;69.66;100514.22;5010489;28;20032;-78
2021/06/07 05:24:07;;;;;;;12.52;7.90;;;;;;;20.22;70.12;100548.25;5011381;28;20128;-78
2021/06/07 05:26:33;;;;;;;9.93;7.95;;;;;;;20.34;69.01;100545.63;5010290;28;20022;-78
2021/06/07 05:28:58;;;;;;;9.57;8.20;;;;;;;20.45;69.00;100553.44;5010275;28;20141;-78
2021/06/07 05:31:25;;;;;;;9.00;7.63;;;;;;;20.51;69.18;100529.81;5011465;28;20445;-77
2021/06/07 05:33:51;;;;;;;10.02;7.40;;;;;;;20.60;68.61;100542.91;5024998;28;20049;-78
2021/06/07 05:36:16;;;;;;;9.25;7.78;;;;;;;20.73;67.98;100535.03;5032007;28;20103;-78
2021/06/07 05:38:42;;;;;;;8.60;7.72;;;;;;;20.91;68.68;100560.31;5034805;28;20048;-78
2021/06/07 05:41:07;;;;;;;8.68;7.20;;;;;;;20.97;68.00;100555.03;5034940;28;20061;-78
2021/06/07 05:43:33;;;;;;;10.35;7.82;;;;;;;20.29;69.04;100529.03;5033614;28;20025;-78
2021/06/07 05:45:58;;;;;;;9.52;7.45;;;;;;;20.64;69.04;100575.25;5034917;28;20468;-78
2021/06/07 05:48:24;;;;;;;8.15;7.22;;;;;;;20.69;68.17;100557.75;5033298;28;20040;-78
2021/06/07 05:50:49;;;;;;;13.80;8.35;;;;;;;20.89;70.22;100568.19;5034711;28;20025;-78
2021/06/07 05:53:16;;;;;;;14.93;7.60;;;;;;;20.97;68.88;100568.16;5033083;28;20431;-78
2021/06/07 05:55:44;;;;;;;10.82;7.80;;;;;;;20.89;68.26;100573.44;5034218;28;20032;-78
2021/06/07 05:58:21;;;;;;;11.15;8.00;;;;;;;20.87;68.96;100584.84;5033319;28;20049;-78
2021/06/07 06:00:49;;;;;;;16.05;7.93;;;;;;;20.89;68.06;100567.34;5034754;28;20087;-78
2021/06/07 06:03:15;;;;;;;12.33;8.27;;;;;;;20.83;69.17;100582.19;5034546;28;20403;-78
2021/06/07 06:05:41;;;;;;;10.38;8.15;;;;;;;20.60;69.36;100532.44;5033130;28;20025;-78
2021/06/07 06:08:07;;;;;;;9.82;8.20;;;;;;;20.86;70.34;100568.22;5034454;28;20170;-78
2021/06/07 06:10:35;;;;;;;12.75;8.60;;;;;;;20.96;69.42;100579.53;5034061;28;20458;-79
2021/06/07 06:13:01;;;;;;;10.43;8.90;;;;;;;20.98;68.30;100590.91;5034202;28;20476;-78
2021/06/07 06:15:27;;;;;;;9.98;8.55;;;;;;;20.97;69.04;100589.16;5034319;28;20025;-78
2021/06/07 06:17:54;;;;;;;12.02;9.25;;;;;;;21.03;69.26;100586.50;5034131;28;20025;-78
2021/06/07 06:23:03;;;;;;;10.60;9.13;;;;;;;21.04;67.17;100588.25;5034384;28;20100;-78
2021/06/07 06:25:29;;;;;;;10.30;9.23;;;;;;;21.06;66.78;100590.88;5032979;28;20480;-78
2021/06/07 06:27:56;;;;;;;10.13;8.50;;;;;;;21.04;66.95;100577.75;5032885;28;20030;-78
2021/06/07 06:30:24;;;;;;;11.32;7.40;;;;;;;20.59;66.45;100537.69;5034234;28;20037;-78
2021/06/07 06:32:54;;;;;;;9.43;8.10;;;;;;;20.71;68.91;100595.41;5033754;28;20045;-77
2021/06/07 06:35:19;;;;;;;;;;;;;;;20.72;68.76;100591.00;5033079;28;20794;-78
2021/06/07 06:37:46;;;;;;;10.88;7.57;;;;;;;20.71;68.01;100584.91;5033646;28;19948;-78
2021/06/07 06:40:24;;;;;;;9.02;8.13;;;;;;;20.67;68.45;100590.97;5033776;28;20025;-78
2021/06/07 06:42:52;;;;;;;8.82;7.35;;;;;;;20.55;67.55;100535.94;5032517;28;20030;-78
2021/06/07 06:45:18;;;;;;;8.68;7.72;;;;;;;20.98;67.67;100590.91;5032261;28;20108;-78
2021/06/07 06:47:44;;;;;;;9.05;7.32;;;;;;;21.06;67.08;100596.13;5033371;28;20026;-78
2021/06/07 06:50:11;;;;;;;9.52;7.13;;;;;;;21.20;66.35;100596.06;5032463;28;20033;-78
2021/06/07 06:52:37;;;;;;;9.80;7.97;;;;;;;21.34;66.96;100591.63;5034011;28;20064;-78
2021/06/07 06:55:05;;;;;;;10.80;7.70;;;;;;;21.43;65.96;100590.69;5033587;28;20024;-78
2021/06/07 06:57:30;;;;;;;10.25;8.13;;;;;;;21.52;66.40;100592.38;5033613;28;20116;-78
2021/06/07 06:59:56;;;;;;;10.02;8.48;;;;;;;21.37;67.14;100538.19;5033108;28;20100;-81
2021/06/07 07:02:21;;;;;;;11.05;8.00;;;;;;;21.64;65.68;100579.19;5032378;28;20475;-78
2021/06/07 07:04:47;;;;;;;12.20;7.85;;;;;;;21.68;66.96;100580.06;5033278;28;20029;-81
2021/06/07 07:07:12;;;;;;;11.65;7.63;;;;;;;21.67;66.75;100575.69;5033274;28;20064;-78
2021/06/07 07:09:40;;;;;;;10.27;7.55;;;;;;;21.79;65.08;100592.25;5031753;28;20061;-78
2021/06/07 07:12:06;;;;;;;9.75;7.80;;;;;;;21.83;65.32;100595.69;5032959;28;20108;-79
2021/06/07 07:14:31;;;;;;;11.52;8.60;;;;;;;21.74;65.46;100590.53;5033180;28;20092;-78
2021/06/07 07:16:57;;;;;;;10.02;8.82;;;;;;;21.75;66.08;100590.50;5030065;28;20046;-78
2021/06/07 07:19:23;;;;;;;9.38;8.38;;;;;;;21.83;64.91;100579.94;5013052;28;20053;-79
2021/06/07 07:21:48;;;;;;;13.23;8.45;;;;;;;21.65;65.08;100587.06;5010208;28;20034;-78
2021/06/07 07:24:14;;;;;;;10.77;8.20;;;;;;;21.82;66.11;100593.97;5012925;28;20026;-79
2021/06/07 07:26:40;;;;;;;10.43;7.95;;;;;;;21.84;64.22;100592.19;5012751;28;20030;-78
2021/06/07 07:29:05;;;;;;;10.70;7.78;;;;;;;21.81;63.82;100573.81;5012700;28;20038;-78
2021/06/07 07:31:30;;;;;;;13.38;8.00;;;;;;;21.97;63.11;100585.09;5012442;28;20486;-78
2021/06/07 07:33:56;;;;;;;13.55;8.32;;;;;;;21.83;62.75;100521.25;5010128;28;20124;-83
2021/06/07 07:36:21;;;;;;;8.60;7.80;;;;;;;22.05;63.34;100585.88;4993605;28;20029;-77
2021/06/07 07:38:47;;;;;;;10.05;8.07;;;;;;;22.25;62.84;100601.47;5008233;28;20038;-78
2021/06/07 07:41:12;;;;;;;8.63;7.70;;;;;;;22.29;62.33;100587.44;4993064;28;20494;-78
2021/06/07 07:43:39;;;;;;;9.90;7.60;;;;;;;22.29;63.03;100600.59;4992972;28;20491;-78
2021/06/07 07:46:04;;;;;;;9.02;7.25;;;;;;;21.99;65.01;100604.34;4993402;28;20026;-77
2021/06/07 07:48:30;;;;;;;14.82;8.20;;;;;;;21.99;63.20;100554.38;4993383;28;20473;-78
2021/06/07 07:50:56;;;;;;;12.27;7.65;;;;;;;22.43;61.94;100605.75;4993079;28;20025;-78
2021/06/07 07:53:23;;;;;;;10.35;7.63;;;;;;;22.36;64.79;100603.16;4993276;28;20034;-78
2021/06/07 07:55:52;;;;;;;9.75;8.05;;;;;;;22.48;64.16;100581.13;5006326;28;20389;-78
2021/06/07 07:58:18;;;;;;;;;;;;;;;22.65;62.60;100592.34;5012485;28;20030;-78
2021/06/07 08:00:43;;;;;;;9.88;7.57;;;;;;;22.68;62.07;100579.16;5012149;28;19917;-77
2021/06/07 08:03:09;;;;;;;13.68;7.88;;;;;;;22.64;61.83;100601.13;5012530;28;20127;-78
2021/06/07 08:05:35;;;;;;;11.25;7.40;;;;;;;22.64;62.48;100587.97;5012828;28;20034;-78
2021/06/07 08:08:02;;;;;;;7.20;5.57;;;;;;;22.78;58.03;100593.09;5012483;28;20057;-78
2021/06/07 08:10:27;;;;;;;7.05;6.13;;;;;;;23.07;58.65;100599.75;5012387;28;20088;-78
2021/06/07 08:12:53;;;;;;;8.82;6.65;;;;;;;22.90;59.69;100592.06;5010774;28;20030;-78
2021/06/07 08:15:19;;;;;;;11.00;6.07;;;;;;;23.09;57.99;100601.47;5012572;28;20026;-78
2021/06/07 08:17:45;;;;;;;9.52;6.75;;;;;;;23.02;57.18;100607.72;5011798;28;20024;-78
2021/06/07 08:20:14;;;;;;;7.68;5.57;;;;;;;22.88;55.46;100557.88;5011379;28;20026;-80
2021/06/07 08:22:41;;;;;;;7.72;6.50;;;;;;;23.14;58.93;100590.00;5011825;28;20026;-78
2021/06/07 08:25:07;;;;;;;7.97;6.32;;;;;;;23.26;57.18;100603.06;5011542;28;20480;-80
2021/06/07 08:27:32;;;;;;;7.63;6.13;;;;;;;23.39;58.28;100612.53;5011547;28;20097;-79
2021/06/07 08:29:58;;;;;;;9.02;6.10;;;;;;;23.31;57.67;100606.50;5011368;28;20034;-77
2021/06/07 08:32:24;;;;;;;13.43;6.40;;;;;;;23.33;57.68;100607.34;5012665;28;20033;-76
2021/06/07 08:34:50;;;;;;;9.77;6.40;;;;;;;23.46;59.67;100586.97;5031546;28;20071;-80
2021/06/07 08:37:15;;;;;;;11.63;6.13;;;;;;;23.01;58.27;100590.16;5030974;28;20037;-79
2021/06/07 08:39:41;;;;;;;6.55;5.85;;;;;;;23.24;58.97;100604.81;5031439;28;20029;-80
2021/06/07 08:42:07;;;;;;;11.80;6.90;;;;;;;23.42;59.04;100599.31;5012794;28;20126;-81
2021/06/07 08:44:32;;;;;;;9.98;6.10;;;;;;;23.54;58.23;100603.53;5030852;28;20095;-79
2021/06/07 08:46:58;;;;;;;10.45;6.43;;;;;;;23.32;59.52;100584.53;5031325;28;20053;-80
2021/06/07 08:49:24;;;;;;;11.93;6.28;;;;;;;23.41;58.05;100605.50;5013241;28;20037;-79
2021/06/07 08:51:50;;;;;;;9.13;6.68;;;;;;;23.42;58.47;100580.84;5031190;28;20499;-80
2021/06/07 08:54:16;;;;;;;7.30;6.35;;;;;;;23.39;59.08;100586.19;5031342;28;20041;-80
2021/06/07 08:56:43;;;;;;;11.82;6.63;;;;;;;23.49;57.89;100586.03;5030919;28;20037;-79
2021/06/07 08:59:09;;;;;;;8.00;5.93;;;;;;;23.53;56.86;100598.28;5013344;28;20124;-79
2021/06/07 09:01:35;;;;;;;7.97;6.05;;;;;;;23.24;55.88;100518.78;5013316;28;20033;-80
2021/06/07 09:04:14;;;;;;;9.02;6.13;;;;;;;23.92;56.40;100590.69;5013775;28;20034;-78
2021/06/07 09:06:42;;;;;;;7.43;6.07;;;;;;;23.95;55.00;100576.56;5031415;28;20033;-83
2021/06/07 09:09:09;;;;;;;10.05;5.70;;;;;;;23.93;54.83;100576.59;5013380;28;20040;-80
2021/06/07 09:11:50;;;;;;;10.07;6.65;;;;;;;23.99;56.46;100578.25;5012383;28;20037;-79
2021/06/07 09:14:40;;;;;;;8.15;6.30;;;;;;;23.85;55.13;100531.00;5013279;28;20455;-79
2021/06/07 09:17:20;;;;;;;9.80;6.82;;;;;;;23.87;55.77;100543.25;5013513;28;20068;-81
2021/06/07 09:19:47;;;;;;;9.48;6.47;;;;;;;24.21;55.67;100573.47;5013177;28;20092;-80
2021/06/07 09:22:22;;;;;;;6.55;5.80;;;;;;;24.36;54.00;100570.56;4996578;28;20037;-80
2021/06/07 09:25:06;;;;;;;7.97;6.00;;;;;;;24.33;54.66;100580.31;5013036;28;20038;-82
2021/06/07 09:27:32;;;;;;;10.77;6.75;;;;;;;24.22;54.41;100570.84;5012817;28;20044;-81
2021/06/07 09:29:57;;;;;;;8.77;5.80;;;;;;;23.69;55.09;100573.44;5012177;28;20496;-80
2021/06/07 09:32:23;;;;;;;14.27;5.70;;;;;;;23.59;55.95;100564.81;5012865;28;20517;-78
2021/06/07 09:35:21;;;;;;;11.20;5.55;;;;;;;23.53;56.33;100582.50;4996549;28;20132;-80
2021/06/07 09:38:07;;;;;;;20.00;6.57;;;;;;;23.79;57.28;100581.19;4973805;28;20569;-80
2021/06/07 09:40:32;;;;;;;9.20;6.25;;;;;;;23.61;58.92;100567.41;4957168;28;20117;-80
2021/06/07 09:43:00;;;;;;;13.27;6.68;;;;;;;23.82;57.88;100567.97;4986281;28;20093;-80
2021/06/07 09:45:55;;;;;;;7.85;7.05;;;;;;;23.43;57.82;100551.00;4993118;28;20062;-80
2021/06/07 09:48:28;;;;;;;11.27;6.82;;;;;;;23.82;57.00;100566.19;4993125;28;20038;-80
2021/06/07 09:50:58;;;;;;;9.20;5.75;;;;;;;23.94;54.03;100567.81;4993053;28;20041;-80
2021/06/07 09:53:48;;;;;;;9.18;6.30;;;;;;;24.10;54.20;100564.88;4992843;28;20050;-80
2021/06/07 09:56:17;;;;;;;9.75;5.93;;;;;;;23.92;54.04;100563.47;4992840;28;20065;-80
2021/06/07 09:58:46;;;;;;;7.88;5.80;;;;;;;24.00;54.91;100572.09;4992928;28;20038;-80
2021/06/07 10:01:17;;;;;;;13.18;5.88;;;;;;;23.90;55.83;100560.78;4992796;28;20121;-80
2021/06/07 10:03:49;;;;;;;8.43;6.22;;;;;;;23.17;59.30;100497.84;4993037;28;20499;-80
2021/06/07 10:06:30;;;;;;;9.73;8.65;;;;;;;23.39;65.21;100558.94;4992957;28;20173;-80
2021/06/07 10:08:58;;;;;;;10.45;9.50;;;;;;;23.10;67.79;100555.84;4992352;28;20030;-81
2021/06/07 10:11:32;;;;;;;10.45;9.30;;;;;;;23.19;68.35;100546.97;4992514;28;20034;-76
2021/06/07 10:14:15;;;;;;;11.43;10.43;;;;;;;23.16;72.18;100556.66;5011154;28;20048;-78
2021/06/07 10:16:57;;;;;;;12.75;11.50;;;;;;;23.20;70.95;100561.00;5016656;28;20099;-80
2021/06/07 10:22:03;;;;;;;11.63;10.43;;;;;;;23.37;68.88;100537.06;5040217;28;20091;-82
2021/06/07 10:24:29;;;;;;;13.35;10.63;;;;;;;23.68;68.28;100542.69;4965952;28;20266;-82
2021/06/07 10:26:55;;;;;;;11.68;10.48;;;;;;;23.72;66.32;100520.66;4950672;28;20508;-82
2021/06/07 10:29:22;;;;;;;11.35;10.32;;;;;;;23.78;65.01;100521.47;4945944;28;20035;-85
2021/06/07 10:31:48;;;;;;;16.13;10.02;;;;;;;23.88;64.74;100536.22;4953210;29;20031;-81
2021/06/07 10:34:14;;;;;;;12.88;10.02;;;;;;;23.73;64.05;100530.31;4946485;28;20513;-78
2021/06/07 10:36:47;;;;;;;11.05;9.75;;;;;;;23.72;65.23;100533.84;4961736;28;20078;-82
2021/06/07 10:39:19;;;;;;;10.35;8.57;;;;;;;24.05;60.82;100536.84;4962287;28;20058;-78
2021/06/07 10:42:07;;;;;;;19.38;10.13;;;;;;;24.45;59.99;100521.16;4944498;28;20031;-81
2021/06/07 10:44:37;;;;;;;12.15;9.07;;;;;;;24.49;62.09;100512.28;4962074;28;20039;-78
2021/06/07 10:47:08;;;;;;;9.10;8.20;;;;;;;24.86;59.73;100517.69;4944820;28;20039;-80
2021/06/07 10:49:43;;;;;;;7.90;7.20;;;;;;;25.04;55.12;100512.91;4944661;29;20086;-80
2021/06/07 10:52:14;;;;;;;10.15;7.90;;;;;;;25.11;56.48;100513.63;4933493;28;20039;-79
2021/06/07 10:54:42;;;;;;;10.15;7.30;;;;;;;25.20;56.64;100511.66;4931471;29;20039;-79
2021/06/07 10:57:26;;;;;;;9.43;7.65;;;;;;;25.16;55.45;100510.00;4935940;29;20110;-79
2021/06/07 10:59:53;;;;;;;11.18;7.30;;;;;;;25.18;56.20;100507.31;4941025;29;20160;-79
2021/06/07 11:02:22;;;;;;;8.55;7.00;;;;;;;25.19;56.70;100499.34;4975889;28;20416;-82
2021/06/07 11:05:01;;;;;;;7.30;6.28;;;;;;;24.77;54.75;100430.75;5010789;28;20140;-81
2021/06/07 11:07:27;;;;;;;11.18;8.07;;;;;;;25.18;54.33;100487.06;5009432;28;20045;-79
2021/06/07 11:10:23;;;;;;;9.82;6.70;;;;;;;25.16;55.15;100498.53;4993867;28;20029;-80
2021/06/07 11:12:52;;;;;;;7.53;6.72;;;;;;;25.20;54.55;100494.94;5009754;28;20026;-79
2021/06/07 11:15:24;;;;;;;8.30;7.38;;;;;;;25.22;55.04;100498.38;4994021;28;20142;-79
2021/06/07 11:17:52;;;;;;;7.22;6.45;;;;;;;25.32;53.14;100484.09;5010438;28;20548;-79
2021/06/07 11:20:37;;;;;;;6.32;5.47;;;;;;;25.39;52.51;100476.88;4993456;28;20053;-80
2021/06/07 11:23:06;;;;;;;7.05;6.35;;;;;;;25.39;52.41;100454.91;4993349;28;20504;-80
2021/06/07 11:25:44;;;;;;;7.13;6.38;;;;;;;25.52;53.27;100458.94;4993376;28;20033;-81
2021/06/07 11:28:29;;;;;;;10.00;5.53;;;;;;;25.65;48.73;100464.81;5003749;28;20092;-82
2021/06/07 11:30:56;;;;;;;7.82;5.30;;;;;;;25.81;48.77;100468.78;4990794;28;20046;-82
2021/06/07 11:33:21;;;;;;;9.52;5.70;;;;;;;25.99;49.71;100472.72;5008066;28;20465;-81